createdAt,value
2023-02-24T00:02:20.146Z,12.19
2023-02-24T00:04:51.849Z,11.92
2023-02-24T00:07:21.388Z,12.10
2023-02-24T00:09:50.093Z,12.20
2023-02-24T00:12:20.719Z,12.17
2023-02-24T00:14:49.267Z,12.08
2023-02-24T00:17:19.205Z,12.11
2023-02-24T00:19:47.763Z,12.14
2023-02-24T00:22:16.304Z,11.68
2023-02-24T00:24:44.845Z,11.86
2023-02-24T00:27:13.417Z,11.95
2023-02-24T00:29:42.466Z,12.00
2023-02-24T00:32:13.283Z,12.04
2023-02-24T00:34:44.234Z,11.95
2023-02-24T00:37:15.560Z,11.95
2023-02-24T00:39:44.326Z,11.95
2023-02-24T00:42:13.433Z,11.93
2023-02-24T00:44:45.350Z,11.84
2023-02-24T00:47:16.382Z,11.89
2023-02-24T00:49:46.508Z,11.94
2023-02-24T00:52:16.621Z,11.92
2023-02-24T00:54:46.433Z,11.91
2023-02-24T00:57:16.315Z,12.01
2023-02-24T00:59:47.588Z,11.83
2023-02-24T01:02:16.899Z,11.72
2023-02-24T01:04:49.929Z,11.94
2023-02-24T01:07:18.832Z,11.92
2023-02-24T01:09:47.396Z,11.99
2023-02-24T01:12:33.609Z,11.69
2023-02-24T01:15:05.091Z,11.78
2023-02-24T01:17:36.194Z,11.51
2023-02-24T01:20:16.429Z,11.68
2023-02-24T01:22:45.962Z,11.73
2023-02-24T01:25:15.129Z,11.64
2023-02-24T01:27:43.785Z,11.50
2023-02-24T01:30:16.226Z,10.79
2023-02-24T01:32:47.338Z,11.00
2023-02-24T01:35:17.830Z,11.04
2023-02-24T01:37:46.491Z,11.44
2023-02-24T01:40:21.623Z,11.55
2023-02-24T01:42:51.756Z,10.91
2023-02-24T01:45:25.136Z,11.19
2023-02-24T01:47:57.673Z,11.59
2023-02-24T01:50:29.376Z,11.83
2023-02-24T01:53:04.003Z,11.36
2023-02-24T01:55:36.915Z,11.07
2023-02-24T01:58:10.411Z,11.50
2023-02-24T02:00:45.357Z,11.62
2023-02-24T02:03:27.841Z,11.73
2023-02-24T02:06:01.665Z,11.76
2023-02-24T02:08:30.899Z,11.48
2023-02-24T02:11:04.178Z,11.23
2023-02-24T02:13:35.958Z,11.35
2023-02-24T02:16:44.545Z,11.41
2023-02-24T02:19:38.378Z,11.54
2023-02-24T02:22:31.525Z,11.16
2023-02-24T02:25:09.558Z,11.45
2023-02-24T02:28:04.372Z,11.56
2023-02-24T02:30:56.437Z,11.57
2023-02-24T02:33:52.876Z,11.54
2023-02-24T02:36:29.636Z,11.61
2023-02-24T02:39:05.185Z,11.48
2023-02-24T02:41:43.541Z,11.51
2023-02-24T02:44:17.496Z,11.48
2023-02-24T02:46:50.162Z,11.56
2023-02-24T02:49:23.645Z,11.56
2023-02-24T02:51:58.097Z,11.51
2023-02-24T02:54:34.325Z,11.52
2023-02-24T02:57:10.251Z,11.45
2023-02-24T02:59:49.333Z,11.39
2023-02-24T03:02:28.063Z,11.27
2023-02-24T03:05:02.116Z,11.16
2023-02-24T03:07:37.707Z,11.24
2023-02-24T03:10:17.672Z,11.29
2023-02-24T03:12:48.056Z,11.33
2023-02-24T03:15:21.097Z,11.36
2023-02-24T03:17:56.356Z,11.39
2023-02-24T03:20:32.836Z,11.37
2023-02-24T03:23:05.717Z,11.37
2023-02-24T03:25:44.596Z,11.34
2023-02-24T03:28:17.606Z,11.35
2023-02-24T03:30:50.514Z,11.41
2023-02-24T03:33:25.010Z,11.37
2023-02-24T03:35:53.741Z,11.35
2023-02-24T03:38:24.520Z,11.37
2023-02-24T03:40:53.757Z,11.38
2023-02-24T03:43:27.976Z,11.36
2023-02-24T03:45:57.329Z,11.36
2023-02-24T03:48:28.370Z,11.38
2023-02-24T03:50:59.441Z,11.35
2023-02-24T03:53:39.462Z,11.32
2023-02-24T03:56:23.894Z,11.31
2023-02-24T03:59:06.668Z,11.27
2023-02-24T04:01:43.493Z,11.27
2023-02-24T04:04:19.516Z,11.31
2023-02-24T04:06:55.829Z,11.33
2023-02-24T04:09:37.762Z,11.33
2023-02-24T04:12:14.696Z,11.28
2023-02-24T04:14:49.656Z,11.29
2023-02-24T04:17:21.863Z,11.12
2023-02-24T04:19:53.057Z,11.20
2023-02-24T04:22:25.175Z,11.26
2023-02-24T04:24:59.786Z,11.27
2023-02-24T04:27:29.322Z,11.25
2023-02-24T04:30:04.931Z,11.26
2023-02-24T04:32:34.474Z,11.20
2023-02-24T04:35:06.628Z,11.21
2023-02-24T04:37:37.217Z,11.21
2023-02-24T04:40:12.403Z,11.21
2023-02-24T04:42:46.510Z,11.20
2023-02-24T04:45:16.925Z,11.18
2023-02-24T04:47:49.533Z,11.20
2023-02-24T04:50:24.053Z,11.17
2023-02-24T04:52:54.221Z,11.21
2023-02-24T04:55:29.178Z,11.20
2023-02-24T04:57:58.079Z,11.20
2023-02-24T05:00:33.490Z,11.21
2023-02-24T05:03:03.507Z,11.23
2023-02-24T05:05:34.104Z,11.21
2023-02-24T05:08:06.508Z,11.18
2023-02-24T05:10:40.696Z,11.21
2023-02-24T05:13:10.969Z,11.24
2023-02-24T05:15:42.353Z,11.26
2023-02-24T05:18:14.190Z,11.22
2023-02-24T05:21:02.187Z,11.16
2023-02-24T05:23:34.165Z,11.14
2023-02-24T05:26:08.610Z,11.20
2023-02-24T05:28:37.998Z,11.19
2023-02-24T05:31:09.256Z,11.15
2023-02-24T05:33:38.987Z,11.19
2023-02-24T05:36:10.023Z,11.19
2023-02-24T05:38:39.014Z,11.15
2023-02-24T05:41:16.955Z,11.16
2023-02-24T05:43:48.192Z,11.14
2023-02-24T05:46:17.315Z,11.02
2023-02-24T05:48:47.160Z,10.98
2023-02-24T05:51:17.176Z,11.06
2023-02-24T05:53:45.849Z,11.09
2023-02-24T05:56:17.554Z,11.09
2023-02-24T05:58:46.835Z,11.15
2023-02-24T06:01:19.047Z,11.04
2023-02-24T06:03:48.639Z,11.07
2023-02-24T06:06:18.077Z,11.05
2023-02-24T06:08:50.588Z,11.06
2023-02-24T06:11:22.010Z,10.84
2023-02-24T06:13:50.929Z,10.91
2023-02-24T06:16:20.114Z,11.01
2023-02-24T06:18:50.986Z,10.95
2023-02-24T06:21:20.233Z,11.03
2023-02-24T06:23:49.318Z,10.97
2023-02-24T06:26:21.710Z,11.01
2023-02-24T06:28:54.117Z,10.51
2023-02-24T06:31:23.242Z,10.31
2023-02-24T06:33:53.273Z,10.78
2023-02-24T06:36:22.217Z,10.89
2023-02-24T06:38:52.655Z,10.69
2023-02-24T06:41:23.017Z,10.90
2023-02-24T06:43:53.016Z,10.90
2023-02-24T06:46:21.707Z,10.70
2023-02-24T06:48:50.329Z,10.76
2023-02-24T06:51:19.097Z,10.91
2023-02-24T06:53:49.132Z,10.18
2023-02-24T06:56:19.967Z,10.72
2023-02-24T06:58:52.200Z,10.30
2023-02-24T07:01:25.731Z,10.22
2023-02-24T07:04:17.869Z,10.58
2023-02-24T07:06:49.535Z,10.85
2023-02-24T07:09:19.985Z,10.72
2023-02-24T07:11:52.460Z,10.73
2023-02-24T07:14:24.576Z,10.85
2023-02-24T07:16:55.098Z,10.42
2023-02-24T07:19:26.726Z,10.58
2023-02-24T07:22:00.310Z,10.70
2023-02-24T07:24:36.049Z,10.17
2023-02-24T07:27:06.829Z,10.20
2023-02-24T07:29:38.440Z,10.47
2023-02-24T07:32:09.704Z,10.35
2023-02-24T07:34:40.423Z,10.80
2023-02-24T07:37:09.727Z,10.88
2023-02-24T07:39:39.710Z,10.97
2023-02-24T07:42:09.778Z,10.49
2023-02-24T07:44:40.026Z,10.32
2023-02-24T07:47:08.922Z,10.76
2023-02-24T07:49:39.187Z,10.70
2023-02-24T07:52:08.297Z,10.91
2023-02-24T07:54:39.407Z,10.31
2023-02-24T07:57:14.006Z,9.91
2023-02-24T07:59:47.159Z,9.93
2023-02-24T08:02:16.854Z,10.49
2023-02-24T08:04:50.201Z,9.62
2023-02-24T08:07:25.077Z,9.81
2023-02-24T08:10:11.986Z,10.45
2023-02-24T08:12:43.655Z,10.14
2023-02-24T08:15:24.238Z,10.29
2023-02-24T08:17:57.417Z,10.56
2023-02-24T08:20:29.621Z,9.68
2023-02-24T08:22:58.361Z,9.12
2023-02-24T08:25:35.796Z,9.85
2023-02-24T08:28:09.657Z,8.62
2023-02-24T08:30:45.627Z,9.27
2023-02-24T08:33:19.939Z,8.50
2023-02-24T08:35:56.624Z,9.63
2023-02-24T08:38:27.663Z,9.59
2023-02-24T08:40:59.306Z,9.76
2023-02-24T08:43:33.731Z,9.92
2023-02-24T08:46:18.616Z,9.76
2023-02-24T08:48:49.863Z,9.08
2023-02-24T08:51:22.912Z,9.01
2023-02-24T08:53:53.790Z,8.82
2023-02-24T08:56:25.259Z,8.21
2023-02-24T08:58:58.183Z,8.78
2023-02-24T09:01:34.888Z,9.91
2023-02-24T09:04:06.546Z,10.44
2023-02-24T09:06:44.083Z,9.78
2023-02-24T09:09:18.323Z,9.42
2023-02-24T09:11:47.600Z,10.05
2023-02-24T09:14:26.816Z,10.65
2023-02-24T09:17:06.968Z,10.90
2023-02-24T09:20:01.787Z,10.53
2023-02-24T09:22:31.778Z,10.50
2023-02-24T09:25:21.852Z,10.56
2023-02-24T09:27:57.095Z,9.28
2023-02-24T09:30:38.035Z,8.84
2023-02-24T09:33:18.753Z,7.88
2023-02-24T09:35:49.960Z,9.50
2023-02-24T09:38:20.337Z,9.93
2023-02-24T09:40:50.400Z,8.70
2023-02-24T09:43:24.457Z,7.84
2023-02-24T09:45:58.717Z,8.59
2023-02-24T09:48:43.902Z,8.95
2023-02-24T09:51:23.009Z,9.32
2023-02-24T09:53:56.674Z,8.71
2023-02-24T09:56:37.231Z,8.70
2023-02-24T09:59:12.631Z,8.44
2023-02-24T10:01:53.348Z,8.55
2023-02-24T10:04:53.895Z,8.20
2023-02-24T10:07:30.204Z,9.08
2023-02-24T10:10:19.830Z,8.45
2023-02-24T10:12:58.424Z,8.48
2023-02-24T10:15:59.598Z,8.45
2023-02-24T10:18:34.561Z,8.42
2023-02-24T10:21:15.689Z,9.19
2023-02-24T10:24:02.545Z,8.36
2023-02-24T10:26:51.232Z,7.97
2023-02-24T10:29:39.211Z,6.77
2023-02-24T10:32:23.895Z,6.64
2023-02-24T10:34:53.257Z,6.12
2023-02-24T10:37:29.035Z,6.84
2023-02-24T10:39:59.980Z,6.36
2023-02-24T10:42:31.924Z,6.51
2023-02-24T10:45:17.995Z,6.45
2023-02-24T10:47:56.789Z,5.71
2023-02-24T10:50:31.040Z,5.97
2023-02-24T10:53:26.515Z,6.71
2023-02-24T10:56:15.365Z,7.40
2023-02-24T10:58:56.832Z,8.50
2023-02-24T11:01:43.637Z,8.17
2023-02-24T11:04:33.412Z,6.46
2023-02-24T11:07:10.421Z,7.97
2023-02-24T11:09:52.117Z,7.02
2023-02-24T11:12:42.020Z,6.88
2023-02-24T11:15:38.896Z,6.97
2023-02-24T11:18:10.537Z,7.50
2023-02-24T11:20:49.293Z,7.24
2023-02-24T11:23:23.566Z,6.99
2023-02-24T11:25:58.336Z,5.62
2023-02-24T11:28:52.927Z,6.36
2023-02-24T11:31:38.347Z,6.37
2023-02-24T11:34:12.059Z,7.17
2023-02-24T11:36:49.010Z,8.70
2023-02-24T11:39:46.675Z,6.63
2023-02-24T11:42:22.061Z,7.44
2023-02-24T11:44:58.220Z,7.20
2023-02-24T11:47:36.832Z,7.10
2023-02-24T11:50:30.939Z,7.09
2023-02-24T11:53:06.084Z,6.61
2023-02-24T11:55:42.468Z,6.98
2023-02-24T11:58:20.613Z,5.68
2023-02-24T12:00:57.418Z,6.52
2023-02-24T12:03:31.658Z,6.93
2023-02-24T12:06:12.717Z,7.28
2023-02-24T12:08:46.821Z,7.18
2023-02-24T12:11:24.330Z,6.70
2023-02-24T12:14:01.547Z,8.07
2023-02-24T12:16:36.534Z,8.66
2023-02-24T12:19:18.545Z,8.13
2023-02-24T12:21:52.720Z,7.97
2023-02-24T12:24:22.330Z,8.38
2023-02-24T12:27:03.282Z,7.08
2023-02-24T12:30:06.384Z,8.08
2023-02-24T12:32:54.347Z,8.50
2023-02-24T12:35:34.031Z,7.70
2023-02-24T12:38:14.852Z,7.80
2023-02-24T12:40:48.276Z,7.26
2023-02-24T12:43:28.134Z,5.98
2023-02-24T12:46:04.199Z,5.82
2023-02-24T12:48:57.212Z,5.51
2023-02-24T12:51:35.106Z,7.41
2023-02-24T12:54:10.440Z,7.19
2023-02-24T12:56:49.108Z,6.78
2023-02-24T12:59:22.402Z,8.06
2023-02-24T13:01:59.749Z,6.95
2023-02-24T13:04:40.316Z,7.24
2023-02-24T13:07:28.902Z,7.99
2023-02-24T13:10:11.532Z,8.11
2023-02-24T13:12:44.527Z,8.80
2023-02-24T13:15:21.865Z,9.16
2023-02-24T13:17:54.524Z,7.35
2023-02-24T13:20:33.660Z,7.26
2023-02-24T13:23:04.957Z,8.44
2023-02-24T13:25:37.067Z,7.09
2023-02-24T13:28:08.195Z,6.63
2023-02-24T13:30:42.029Z,7.45
2023-02-24T13:33:33.889Z,7.97
2023-02-24T13:36:21.592Z,6.08
2023-02-24T13:38:53.068Z,5.73
2023-02-24T13:41:40.789Z,6.14
2023-02-24T13:44:29.576Z,6.28
2023-02-24T13:47:32.364Z,6.09
2023-02-24T13:50:20.926Z,6.16
2023-02-24T13:53:06.572Z,6.69
2023-02-24T13:55:50.225Z,7.21
2023-02-24T13:58:54.563Z,7.64
2023-02-24T14:01:24.440Z,6.89
2023-02-24T14:04:14.471Z,7.36
2023-02-24T14:06:49.407Z,7.76
2023-02-24T14:09:23.856Z,7.12
2023-02-24T14:11:56.082Z,8.10
2023-02-24T14:14:25.429Z,6.91
2023-02-24T14:16:54.102Z,7.36
2023-02-24T14:19:25.115Z,7.12
2023-02-24T14:21:56.998Z,6.60
2023-02-24T14:24:28.030Z,5.92
2023-02-24T14:26:59.328Z,7.00
2023-02-24T14:29:32.780Z,6.29
2023-02-24T14:32:02.470Z,6.24
2023-02-24T14:34:34.003Z,5.87
2023-02-24T14:37:05.252Z,5.80
2023-02-24T14:39:35.346Z,7.48
2023-02-24T14:42:13.581Z,7.39
2023-02-24T14:44:44.464Z,7.96
2023-02-24T14:47:15.400Z,7.53
2023-02-24T14:49:53.169Z,8.97
2023-02-24T14:52:29.427Z,8.40
2023-02-24T14:55:02.763Z,7.78
2023-02-24T14:57:34.352Z,6.45
2023-02-24T15:00:13.285Z,7.29
2023-02-24T15:02:46.118Z,7.17
2023-02-24T15:05:14.822Z,7.13
2023-02-24T15:07:46.338Z,7.03
2023-02-24T15:10:24.239Z,8.42
2023-02-24T15:12:59.709Z,8.29
2023-02-24T15:15:31.741Z,7.32
2023-02-24T15:18:04.387Z,7.69
2023-02-24T15:20:36.319Z,8.54
2023-02-24T15:23:06.582Z,7.76
2023-02-24T15:25:44.556Z,7.73
2023-02-24T15:28:26.063Z,8.43
2023-02-24T15:31:03.290Z,8.67
2023-02-24T15:33:37.192Z,9.08
2023-02-24T15:36:11.237Z,8.69
2023-02-24T15:38:43.631Z,8.83
2023-02-24T15:41:13.592Z,7.60
2023-02-24T15:43:49.139Z,7.30
2023-02-24T15:46:25.170Z,6.69
2023-02-24T15:48:55.608Z,6.59
2023-02-24T15:51:32.692Z,8.00
2023-02-24T15:54:04.589Z,7.83
2023-02-24T15:56:35.564Z,8.49
2023-02-24T15:59:06.104Z,7.87
2023-02-24T16:01:35.446Z,8.02
2023-02-24T16:04:05.670Z,8.20
2023-02-24T16:06:36.119Z,7.73
2023-02-24T16:09:06.695Z,7.25
2023-02-24T16:11:39.714Z,7.95
2023-02-24T16:14:11.018Z,8.23
2023-02-24T16:16:40.025Z,8.83
2023-02-24T16:19:09.315Z,8.48
2023-02-24T16:21:37.910Z,7.53
2023-02-24T16:24:08.253Z,7.95
2023-02-24T16:26:39.961Z,8.17
2023-02-24T16:29:14.086Z,9.13
2023-02-24T16:31:43.402Z,9.11
2023-02-24T16:34:16.182Z,9.57
2023-02-24T16:36:45.016Z,8.78
2023-02-24T16:39:15.552Z,9.29
2023-02-24T16:41:44.143Z,9.38
2023-02-24T16:44:12.759Z,9.50
2023-02-24T16:46:44.833Z,9.06
2023-02-24T16:49:19.442Z,9.35
2023-02-24T16:51:48.166Z,9.61
2023-02-24T16:54:21.676Z,8.48
2023-02-24T16:56:50.774Z,8.73
2023-02-24T16:59:19.378Z,9.12
2023-02-24T17:01:48.174Z,9.45
2023-02-24T17:04:16.949Z,9.02
2023-02-24T17:06:45.564Z,8.97
2023-02-24T17:09:15.689Z,8.93
2023-02-24T17:11:46.198Z,8.35
2023-02-24T17:14:18.839Z,8.16
2023-02-24T17:16:48.150Z,7.97
2023-02-24T17:19:16.753Z,9.16
2023-02-24T17:21:46.155Z,9.42
2023-02-24T17:24:17.311Z,9.67
2023-02-24T17:26:47.656Z,8.08
2023-02-24T17:29:16.456Z,7.19
2023-02-24T17:31:45.206Z,8.35
2023-02-24T17:34:13.946Z,9.41
2023-02-24T17:36:42.578Z,8.54
2023-02-24T17:39:11.158Z,8.83
2023-02-24T17:41:39.759Z,9.48
2023-02-24T17:44:09.705Z,9.82
2023-02-24T17:46:38.408Z,9.69
2023-02-24T17:49:07.054Z,9.45
2023-02-24T17:51:35.765Z,9.75
2023-02-24T17:54:04.411Z,9.72
2023-02-24T17:56:33.011Z,9.97
2023-02-24T17:59:01.601Z,8.84
2023-02-24T18:01:31.560Z,8.91
2023-02-24T18:04:00.156Z,9.05
2023-02-24T18:06:28.767Z,8.80
2023-02-24T18:08:57.355Z,9.01
2023-02-24T18:11:25.945Z,9.21
2023-02-24T18:13:56.271Z,9.81
2023-02-24T18:16:25.295Z,9.17
2023-02-24T18:18:55.558Z,9.58
2023-02-24T18:21:24.798Z,8.99
2023-02-24T18:23:54.135Z,9.56
2023-02-24T18:26:25.552Z,9.34
2023-02-24T18:28:54.542Z,9.11
2023-02-24T18:31:25.244Z,7.21
2023-02-24T18:33:57.163Z,6.29
2023-02-24T18:36:27.050Z,7.28
2023-02-24T18:38:57.442Z,7.10
2023-02-24T18:41:26.413Z,7.30
2023-02-24T18:43:59.233Z,8.41
2023-02-24T18:46:28.534Z,8.64
2023-02-24T18:48:59.013Z,7.75
2023-02-24T18:51:29.189Z,8.12
2023-02-24T18:54:00.454Z,7.62
2023-02-24T18:56:31.102Z,6.60
2023-02-24T18:59:01.234Z,6.01
2023-02-24T19:01:32.226Z,6.06
2023-02-24T19:04:02.923Z,5.96
2023-02-24T19:06:33.109Z,7.33
2023-02-24T19:09:03.585Z,8.12
2023-02-24T19:11:32.349Z,8.96
2023-02-24T19:14:01.814Z,9.33
2023-02-24T19:16:31.482Z,9.64
2023-02-24T19:19:01.776Z,9.13
2023-02-24T19:21:31.913Z,9.70
2023-02-24T19:24:02.272Z,9.50
2023-02-24T19:26:31.503Z,9.34
2023-02-24T19:29:00.656Z,9.14
2023-02-24T19:31:31.045Z,9.10
2023-02-24T19:34:03.211Z,9.46
2023-02-24T19:36:34.520Z,9.45
2023-02-24T19:39:03.353Z,8.73
2023-02-24T19:41:32.137Z,8.95
2023-02-24T19:44:01.140Z,8.73
2023-02-24T19:46:33.027Z,7.42
2023-02-24T19:49:03.674Z,6.47
2023-02-24T19:51:32.702Z,5.61
2023-02-24T19:54:03.279Z,5.08
2023-02-24T19:56:33.471Z,5.56
2023-02-24T19:59:03.252Z,6.06
2023-02-24T20:01:32.266Z,6.81
2023-02-24T20:04:04.863Z,7.75
2023-02-24T20:06:35.674Z,7.23
2023-02-24T20:09:06.345Z,7.19
2023-02-24T20:11:37.216Z,6.74
2023-02-24T20:14:06.236Z,7.66
2023-02-24T20:16:36.925Z,6.93
2023-02-24T20:19:09.214Z,7.99
2023-02-24T20:21:38.977Z,8.77
2023-02-24T20:24:11.508Z,8.95
2023-02-24T20:26:42.238Z,9.20
2023-02-24T20:29:11.564Z,9.41
2023-02-24T20:31:40.503Z,9.58
2023-02-24T20:34:10.777Z,8.96
2023-02-24T20:36:39.426Z,9.06
2023-02-24T20:39:08.058Z,9.47
2023-02-24T20:41:36.684Z,9.57
2023-02-24T20:44:05.316Z,9.57
2023-02-24T20:46:34.259Z,8.99
2023-02-24T20:49:05.215Z,9.25
2023-02-24T20:51:37.164Z,9.36
2023-02-24T20:54:06.509Z,9.41
2023-02-24T20:56:37.002Z,8.52
2023-02-24T20:59:07.779Z,9.06
2023-02-24T21:01:37.173Z,9.25
2023-02-24T21:04:06.470Z,8.65
2023-02-24T21:06:37.049Z,8.94
2023-02-24T21:09:06.035Z,9.15
2023-02-24T21:11:34.950Z,8.88
2023-02-24T21:14:04.275Z,9.03
2023-02-24T21:16:35.306Z,8.59
2023-02-24T21:19:03.908Z,8.72
2023-02-24T21:21:32.467Z,8.47
2023-02-24T21:24:02.471Z,8.86
2023-02-24T21:26:31.117Z,9.11
2023-02-24T21:28:59.758Z,8.60
2023-02-24T21:31:29.053Z,8.49
2023-02-24T21:33:58.162Z,7.53
2023-02-24T21:36:28.115Z,6.95
2023-02-24T21:38:57.116Z,7.64
2023-02-24T21:41:27.125Z,8.13
2023-02-24T21:43:56.575Z,7.41
2023-02-24T21:46:28.451Z,7.58
2023-02-24T21:48:58.498Z,8.21
2023-02-24T21:51:29.214Z,6.98
2023-02-24T21:53:58.486Z,7.44
2023-02-24T21:56:31.149Z,7.80
2023-02-24T21:59:01.247Z,7.48
2023-02-24T22:01:32.781Z,7.52
2023-02-24T22:04:03.016Z,6.91
2023-02-24T22:06:33.269Z,6.64
2023-02-24T22:09:04.455Z,8.29
2023-02-24T22:11:36.307Z,7.85
2023-02-24T22:14:07.125Z,7.93
2023-02-24T22:16:35.837Z,8.21
2023-02-24T22:19:05.309Z,7.77
2023-02-24T22:21:34.775Z,6.92
2023-02-24T22:24:05.078Z,6.94
2023-02-24T22:26:35.087Z,6.25
2023-02-24T22:29:04.991Z,7.14
2023-02-24T22:31:36.493Z,6.77
2023-02-24T22:34:05.874Z,7.54
2023-02-24T22:36:36.812Z,6.80
2023-02-24T22:39:05.940Z,6.08
2023-02-24T22:41:37.727Z,7.32
2023-02-24T22:44:07.503Z,8.19
2023-02-24T22:46:38.678Z,6.95
2023-02-24T22:49:07.739Z,8.35
2023-02-24T22:51:36.432Z,8.49
2023-02-24T22:54:05.862Z,8.59
2023-02-24T22:56:36.004Z,7.60
2023-02-24T22:59:04.913Z,8.06
2023-02-24T23:01:35.946Z,6.90
2023-02-24T23:04:06.512Z,8.06
2023-02-24T23:06:36.348Z,7.93
2023-02-24T23:09:06.975Z,7.82
2023-02-24T23:11:40.902Z,7.45
2023-02-24T23:14:13.883Z,7.19
2023-02-24T23:16:44.490Z,6.55
2023-02-24T23:19:16.130Z,6.91
2023-02-24T23:21:48.025Z,6.99
2023-02-24T23:24:17.532Z,7.76
2023-02-24T23:26:49.553Z,7.76
2023-02-24T23:29:19.499Z,7.80
2023-02-24T23:31:49.107Z,7.92
2023-02-24T23:34:17.984Z,7.48
2023-02-24T23:36:47.874Z,7.52
2023-02-24T23:39:18.280Z,8.13
2023-02-24T23:41:48.316Z,7.90
2023-02-24T23:44:16.991Z,8.00
2023-02-24T23:46:45.595Z,8.42
2023-02-24T23:49:14.150Z,8.64
2023-02-24T23:51:48.378Z,8.44
2023-02-24T23:54:17.850Z,8.70
2023-02-24T23:56:47.870Z,8.24
2023-02-24T23:59:16.681Z,8.66
